Time;durP1;ratioP1;P1;durP2;ratioP2;P2;SDS_P1;SDS_P2;PMS_P1;PMS_P2;Temp;Humidity;BMP_temperature;BMP_pressure;BME280_temperature;BME280_humidity;BME280_pressure;Samples;Min_cycle;Max_cycle;Signal;HPM_P1;HPM_P2
2023/08/06 00:00:39;;;;;;;5.82;3.13;;;;;;;12.41;58.52;100701.63;4989697;28;20079;-69
2023/08/06 00:03:05;;;;;;;6.38;2.33;;;;;;;12.32;58.59;100706.50;4991906;28;20045;-70
2023/08/06 00:05:31;;;;;;;5.28;3.80;;;;;;;12.38;58.64;100695.69;5007784;28;20076;-69
2023/08/06 00:08:05;;;;;;;5.15;2.08;;;;;;;12.37;58.50;100701.84;4989778;28;20531;-70
2023/08/06 00:10:31;;;;;;;4.40;2.92;;;;;;;12.38;58.72;100685.19;4987833;28;20040;-64
2023/08/06 00:12:56;;;;;;;4.57;2.20;;;;;;;12.39;58.63;100685.13;4987822;28;20511;-65
2023/08/06 00:15:24;;;;;;;6.63;2.80;;;;;;;12.27;58.54;100691.84;4988825;28;20929;-68
2023/08/06 00:17:49;;;;;;;3.70;2.58;;;;;;;12.27;58.43;100696.25;4979659;28;20053;-69
2023/08/06 00:20:15;;;;;;;3.10;2.53;;;;;;;12.16;58.80;100688.91;4986631;28;20285;-67
2023/08/06 00:22:40;;;;;;;3.90;2.25;;;;;;;12.16;58.87;100690.69;4982967;28;20442;-66
2023/08/06 00:25:06;;;;;;;3.47;2.42;;;;;;;12.13;58.48;100696.91;4993134;28;20030;-71
2023/08/06 00:27:32;;;;;;;4.20;2.53;;;;;;;12.07;58.66;100702.47;5006220;28;20038;-71
2023/08/06 00:29:58;;;;;;;2.90;2.25;;;;;;;12.03;58.67;100700.91;4993469;28;20099;-70
2023/08/06 00:32:24;;;;;;;3.00;2.47;;;;;;;11.98;58.75;100693.28;4986450;28;21076;-71
2023/08/06 00:34:49;;;;;;;3.72;2.33;;;;;;;11.92;59.08;100698.81;4989718;28;20537;-71
2023/08/06 00:37:17;;;;;;;2.55;1.75;;;;;;;11.86;59.10;100693.88;4989039;28;20038;-74
2023/08/06 00:39:44;;;;;;;3.38;1.85;;;;;;;11.85;59.10;100693.03;4994666;28;20041;-72
2023/08/06 00:42:12;;;;;;;2.72;1.77;;;;;;;11.81;59.02;100690.63;4993151;28;20038;-73
2023/08/06 00:44:40;;;;;;;2.80;1.98;;;;;;;11.75;58.88;100689.09;4989619;28;20080;-72
2023/08/06 00:47:08;;;;;;;3.65;2.00;;;;;;;11.75;59.04;100699.56;4975803;28;20190;-70
2023/08/06 00:49:38;;;;;;;3.35;2.15;;;;;;;11.72;59.00;100699.72;4984809;28;20416;-70
2023/08/06 00:52:06;;;;;;;3.13;1.90;;;;;;;11.65;59.29;100688.72;4990847;28;20053;-70
2023/08/06 00:54:33;;;;;;;6.57;1.95;;;;;;;11.67;58.89;100691.25;4983259;28;20508;-67
2023/08/06 00:57:00;;;;;;;2.15;1.30;;;;;;;11.65;59.05;100695.72;4990328;28;20068;-67
2023/08/06 00:59:28;;;;;;;2.83;1.30;;;;;;;11.57;58.98;100692.59;4970785;28;20712;-67
2023/08/06 01:01:54;;;;;;;1.90;1.48;;;;;;;11.58;58.78;100694.31;4973775;28;20032;-67
2023/08/06 01:04:19;;;;;;;7.78;1.90;;;;;;;11.53;58.66;100685.81;5002830;28;20045;-67
2023/08/06 01:06:55;;;;;;;2.30;1.60;;;;;;;11.45;58.43;100684.41;4991467;28;20178;-68
2023/08/06 01:09:45;;;;;;;2.38;1.23;;;;;;;11.35;58.72;100693.63;4980066;28;20091;-71
2023/08/06 01:12:17;;;;;;;2.88;1.30;;;;;;;11.34;58.69;100697.13;4991053;28;20044;-69
2023/08/06 01:14:52;;;;;;;1.52;1.15;;;;;;;11.53;57.90;100693.66;5002519;28;20042;-68
2023/08/06 01:17:17;;;;;;;2.22;1.13;;;;;;;11.41;57.97;100697.72;4986193;28;20132;-68
2023/08/06 01:19:45;;;;;;;4.30;1.27;;;;;;;11.46;57.86;100686.13;4987803;28;20319;-68
2023/08/06 01:22:14;;;;;;;5.13;1.52;;;;;;;11.43;58.10;100695.88;4989233;28;20315;-68
2023/08/06 01:24:46;;;;;;;2.70;1.38;;;;;;;11.41;58.14;100693.31;4989741;28;20033;-68
2023/08/06 01:27:35;;;;;;;6.15;1.40;;;;;;;11.55;57.94;100689.22;4995913;28;20366;-69
2023/08/06 01:30:14;;;;;;;2.00;1.40;;;;;;;11.60;57.61;100687.25;4997105;28;20049;-68
2023/08/06 01:32:45;;;;;;;2.78;1.58;;;;;;;11.60;57.51;100682.00;4989818;28;20038;-69
2023/08/06 01:35:14;;;;;;;3.70;1.50;;;;;;;11.59;57.45;100685.53;4992971;28;20037;-68
2023/08/06 01:37:41;;;;;;;4.22;1.20;;;;;;;11.59;57.59;100681.13;5004581;28;20626;-68
2023/08/06 01:40:15;;;;;;;2.65;1.50;;;;;;;11.61;57.61;100678.47;4987871;28;20030;-68
2023/08/06 01:42:40;;;;;;;4.07;0.98;;;;;;;11.72;57.41;100670.94;4991134;28;20462;-69
2023/08/06 01:45:08;;;;;;;3.30;1.95;;;;;;;11.67;57.17;100665.91;4993130;28;20404;-68
2023/08/06 01:47:36;;;;;;;1.95;0.90;;;;;;;11.71;57.29;100669.25;4981618;28;20033;-69
2023/08/06 01:50:05;;;;;;;1.95;1.20;;;;;;;11.82;57.21;100658.28;4993157;28;20079;-68
2023/08/06 01:52:30;;;;;;;4.53;1.20;;;;;;;11.86;57.17;100668.53;5003755;28;20042;-68
2023/08/06 01:55:00;;;;;;;1.40;0.93;;;;;;;11.96;57.10;100668.94;4987584;28;20076;-68
2023/08/06 01:57:28;;;;;;;3.55;1.00;;;;;;;11.92;57.08;100672.63;4990356;28;20068;-68
2023/08/06 01:59:54;;;;;;;2.83;1.30;;;;;;;11.63;58.12;100663.53;5006659;28;20115;-68
2023/08/06 02:02:19;;;;;;;1.58;0.65;;;;;;;11.97;57.35;100664.53;4992522;28;20278;-67
2023/08/06 02:04:46;;;;;;;1.95;1.05;;;;;;;11.97;56.92;100664.53;4992954;28;20052;-68
2023/08/06 02:07:12;;;;;;;9.27;1.38;;;;;;;12.00;57.03;100659.13;4994708;28;20261;-68
2023/08/06 02:09:37;;;;;;;1.67;1.10;;;;;;;12.09;56.85;100653.47;4990959;28;20057;-68
2023/08/06 02:12:03;;;;;;;2.78;1.27;;;;;;;12.07;56.50;100657.94;4996899;28;20052;-68
2023/08/06 02:14:28;;;;;;;1.92;0.82;;;;;;;12.05;56.71;100651.91;5007194;28;20050;-67
2023/08/06 02:16:59;;;;;;;2.55;1.08;;;;;;;12.07;56.64;100650.06;4991531;28;20441;-71
2023/08/06 02:19:25;;;;;;;1.58;0.98;;;;;;;12.08;56.80;100646.50;4991135;28;20037;-70
2023/08/06 02:21:50;;;;;;;1.65;1.08;;;;;;;12.06;56.60;100645.75;4996638;28;20033;-71
2023/08/06 02:24:15;;;;;;;4.47;0.60;;;;;;;12.07;56.54;100650.06;4992629;28;20300;-71
2023/08/06 02:26:43;;;;;;;1.63;1.00;;;;;;;12.14;56.34;100642.75;4996992;28;20057;-71
2023/08/06 02:29:08;;;;;;;2.35;1.05;;;;;;;12.13;56.47;100638.41;4984364;28;20451;-71
2023/08/06 02:31:36;;;;;;;1.40;0.70;;;;;;;12.12;56.35;100629.72;4990512;28;20135;-71
2023/08/06 02:34:04;;;;;;;1.90;0.93;;;;;;;12.19;56.15;100630.25;4995739;28;20497;-71
2023/08/06 02:36:32;;;;;;;1.33;0.50;;;;;;;12.20;56.32;100635.44;4991075;28;20299;-70
2023/08/06 02:38:58;;;;;;;2.47;1.00;;;;;;;12.22;56.29;100632.72;4993034;28;20524;-69
2023/08/06 02:41:24;;;;;;;4.32;1.02;;;;;;;12.17;56.46;100632.94;5005017;28;20069;-70
2023/08/06 02:43:50;;;;;;;2.20;0.70;;;;;;;12.18;56.49;100625.94;4988066;28;20467;-70
2023/08/06 02:46:16;;;;;;;2.10;1.23;;;;;;;12.14;56.35;100634.91;4977078;28;20034;-70
2023/08/06 02:48:41;;;;;;;1.95;0.57;;;;;;;12.23;56.13;100642.28;4976242;28;20045;-70
2023/08/06 02:51:07;;;;;;;1.58;1.20;;;;;;;12.13;56.32;100638.41;4983114;28;20080;-69
2023/08/06 02:53:35;;;;;;;1.67;0.95;;;;;;;12.16;56.31;100641.75;4986208;28;20060;-70
2023/08/06 02:56:05;;;;;;;1.55;0.90;;;;;;;12.09;56.35;100637.75;4988758;28;20044;-70
2023/08/06 02:58:42;;;;;;;1.70;1.02;;;;;;;12.17;56.38;100635.56;4987606;28;20634;-69
2023/08/06 03:01:18;;;;;;;6.50;1.13;;;;;;;12.11;56.37;100625.44;4993931;28;20183;-70
2023/08/06 03:03:56;;;;;;;4.38;0.98;;;;;;;12.24;56.39;100626.47;4987595;28;20448;-70
2023/08/06 03:06:28;;;;;;;2.38;1.08;;;;;;;12.25;56.26;100628.19;4992998;28;20029;-69
2023/08/06 03:08:57;;;;;;;1.80;1.20;;;;;;;12.25;56.33;100627.34;4990011;28;20041;-69
2023/08/06 03:11:25;;;;;;;1.75;1.17;;;;;;;12.21;56.50;100625.78;4986655;28;20037;-70
2023/08/06 03:13:58;;;;;;;2.17;1.50;;;;;;;12.21;56.41;100628.41;4992678;28;20091;-69
2023/08/06 03:16:24;;;;;;;2.60;1.50;;;;;;;12.19;56.58;100627.63;4987619;28;20041;-70
2023/08/06 03:18:49;;;;;;;6.15;1.40;;;;;;;12.24;56.46;100629.09;4992264;28;20544;-69
2023/08/06 03:21:16;;;;;;;2.45;1.27;;;;;;;12.25;56.33;100617.69;4991103;28;20428;-69
2023/08/06 03:23:42;;;;;;;2.10;1.08;;;;;;;12.23;56.26;100623.94;4989696;28;20099;-69
2023/08/06 03:26:08;;;;;;;1.90;1.08;;;;;;;12.20;56.30;100619.72;4990798;28;20026;-69
2023/08/06 03:28:33;;;;;;;2.30;1.48;;;;;;;12.18;56.50;100612.84;4988154;28;21263;-70
2023/08/06 03:31:01;;;;;;;2.22;1.45;;;;;;;12.21;56.40;100610.91;4994884;28;20029;-70
2023/08/06 03:33:31;;;;;;;2.95;1.48;;;;;;;12.25;56.72;100601.13;5006248;28;20116;-70
2023/08/06 03:35:58;;;;;;;2.72;1.02;;;;;;;12.25;56.60;100601.13;5007681;28;20030;-71
2023/08/06 03:38:24;;;;;;;3.00;1.00;;;;;;;12.20;56.55;100598.75;4988079;28;20097;-70
2023/08/06 03:40:49;;;;;;;2.97;1.00;;;;;;;12.11;56.50;100599.22;5003201;28;20670;-70
2023/08/06 03:43:18;;;;;;;2.67;1.15;;;;;;;12.12;56.43;100607.94;4982915;28;20041;-70
2023/08/06 03:45:44;;;;;;;2.47;1.25;;;;;;;12.13;56.58;100602.59;4983436;28;20029;-69
2023/08/06 03:48:11;;;;;;;2.08;1.10;;;;;;;12.14;56.76;100603.47;4975379;28;20455;-69
2023/08/06 03:50:38;;;;;;;2.17;0.82;;;;;;;12.18;56.78;100605.84;4986489;28;20048;-70
2023/08/06 03:53:04;;;;;;;3.42;1.58;;;;;;;12.23;56.89;100597.75;5009350;28;20037;-69
2023/08/06 03:55:29;;;;;;;2.10;0.90;;;;;;;12.34;56.54;100591.94;4992132;28;20037;-71
2023/08/06 03:57:57;;;;;;;2.40;1.27;;;;;;;12.30;56.68;100599.13;4969072;28;20049;-70
2023/08/06 04:00:23;;;;;;;3.00;1.35;;;;;;;12.28;56.52;100596.56;4992613;28;20119;-70
2023/08/06 04:02:54;;;;;;;5.35;0.98;;;;;;;12.36;56.58;100598.81;4986406;28;20048;-69
2023/08/06 04:05:20;;;;;;;2.90;1.15;;;;;;;12.34;56.53;100591.94;5005242;28;20787;-70
2023/08/06 04:07:45;;;;;;;1.60;0.93;;;;;;;12.34;56.52;100586.72;4994261;28;20046;-70
2023/08/06 04:10:13;;;;;;;5.63;1.50;;;;;;;12.28;56.65;100583.47;4991087;28;20113;-70
2023/08/06 04:12:41;;;;;;;3.50;1.13;;;;;;;12.38;56.51;100585.59;4982146;28;20116;-69
2023/08/06 04:15:07;;;;;;;2.38;1.25;;;;;;;12.34;56.47;100578.84;4970810;28;20092;-68
2023/08/06 04:17:37;;;;;;;2.90;1.35;;;;;;;12.31;56.55;100574.59;5005450;28;20034;-69
2023/08/06 04:20:03;;;;;;;3.20;1.33;;;;;;;12.36;56.66;100571.75;5005155;28;20046;-68
2023/08/06 04:22:29;;;;;;;1.67;1.20;;;;;;;12.35;56.72;100580.53;4980376;28;20092;-70
2023/08/06 04:24:54;;;;;;;1.50;0.88;;;;;;;12.35;56.64;100581.38;4972292;28;20029;-68
2023/08/06 04:27:20;;;;;;;2.40;1.48;;;;;;;12.40;56.60;100582.00;4989729;28;20034;-68
2023/08/06 04:29:47;;;;;;;1.90;1.13;;;;;;;12.50;56.54;100583.19;5006495;28;20042;-69
2023/08/06 04:32:12;;;;;;;3.25;1.27;;;;;;;12.58;55.99;100582.81;4986751;28;20567;-69
2023/08/06 04:34:43;;;;;;;1.70;0.73;;;;;;;12.69;55.99;100575.25;5004450;28;20481;-70
2023/08/06 04:37:09;;;;;;;2.67;1.30;;;;;;;12.74;55.45;100587.25;5008689;28;20048;-69
2023/08/06 04:39:34;;;;;;;2.17;1.20;;;;;;;12.82;55.54;100575.41;4986539;28;20049;-69
2023/08/06 04:42:00;;;;;;;2.33;1.30;;;;;;;12.79;55.44;100580.00;4992271;28;20526;-69
2023/08/06 04:44:29;;;;;;;1.80;0.90;;;;;;;12.80;55.62;100586.91;4986822;28;20037;-69
2023/08/06 04:46:54;;;;;;;1.77;1.30;;;;;;;12.88;55.57;100587.34;5004565;28;20026;-70
2023/08/06 04:49:21;;;;;;;1.20;0.90;;;;;;;12.94;55.31;100588.78;4979836;28;20034;-69
2023/08/06 04:51:49;;;;;;;2.28;1.20;;;;;;;12.91;55.46;100587.16;4990044;28;20033;-69
2023/08/06 04:54:15;;;;;;;2.45;1.55;;;;;;;12.85;55.48;100587.53;4988742;28;20034;-72
2023/08/06 04:56:42;;;;;;;4.65;1.60;;;;;;;12.76;55.84;100583.63;4988691;28;20125;-71
2023/08/06 04:59:08;;;;;;;3.95;1.13;;;;;;;12.74;56.20;100587.25;4994930;28;20140;-71
2023/08/06 05:01:36;;;;;;;2.80;1.42;;;;;;;12.78;56.47;100591.38;4984714;28;20443;-72
2023/08/06 05:04:04;;;;;;;3.95;1.73;;;;;;;12.82;56.30;100585.06;4992108;28;20044;-71
2023/08/06 05:06:30;;;;;;;9.57;1.42;;;;;;;12.91;56.37;100595.03;4989520;28;20033;-69
2023/08/06 05:08:57;;;;;;;1.90;0.90;;;;;;;12.98;56.34;100585.94;4975571;28;20132;-74
2023/08/06 05:11:24;;;;;;;2.33;1.10;;;;;;;13.07;56.05;100589.81;4991989;28;20134;-74
2023/08/06 05:13:49;;;;;;;2.47;1.33;;;;;;;13.09;56.03;100591.44;4975424;28;20168;-72
2023/08/06 05:16:17;;;;;;;4.38;1.10;;;;;;;13.08;56.20;100581.00;5001123;28;20092;-69
2023/08/06 05:18:43;;;;;;;2.65;1.10;;;;;;;13.19;56.23;100594.38;4986894;28;20793;-70
2023/08/06 05:21:08;;;;;;;2.83;1.30;;;;;;;13.34;55.89;100592.69;4992906;28;20347;-69
2023/08/06 05:23:34;;;;;;;1.83;1.33;;;;;;;13.43;55.66;100596.56;4983160;28;20061;-70
2023/08/06 05:26:02;;;;;;;2.78;1.58;;;;;;;13.43;55.34;100599.19;4997595;28;20026;-69
2023/08/06 05:28:28;;;;;;;1.77;1.40;;;;;;;13.52;55.63;100596.91;4986072;28;20140;-67
2023/08/06 05:30:53;;;;;;;2.72;1.60;;;;;;;13.59;55.78;100597.44;4988328;28;20500;-70
2023/08/06 05:33:19;;;;;;;4.35;1.42;;;;;;;13.63;55.42;100598.06;4987814;28;20615;-70
2023/08/06 05:35:44;;;;;;;5.10;1.05;;;;;;;13.66;55.44;100598.75;4983580;28;20044;-70
2023/08/06 05:38:10;;;;;;;3.03;1.33;;;;;;;13.70;55.48;100600.28;4976134;28;20543;-70
2023/08/06 05:40:35;;;;;;;2.95;1.42;;;;;;;13.68;54.87;100603.94;4985741;28;20451;-70
2023/08/06 05:43:01;;;;;;;1.80;1.08;;;;;;;13.67;54.89;100599.59;4988292;28;20045;-70
2023/08/06 05:45:26;;;;;;;3.15;1.13;;;;;;;13.71;54.84;100595.88;4990984;28;20029;-69
2023/08/06 05:47:54;;;;;;;1.65;0.90;;;;;;;13.75;55.21;100600.03;4985687;28;20041;-70
2023/08/06 05:50:24;;;;;;;3.58;1.33;;;;;;;13.73;54.51;100602.72;4986616;28;20517;-70
2023/08/06 05:52:52;;;;;;;2.55;1.20;;;;;;;13.85;54.69;100601.19;4976474;28;20045;-70
2023/08/06 05:55:20;;;;;;;1.73;1.05;;;;;;;13.94;54.53;100598.03;4989641;28;20040;-70
2023/08/06 05:57:48;;;;;;;1.50;0.88;;;;;;;13.97;54.45;100606.66;4987296;28;20038;-69
2023/08/06 06:00:13;;;;;;;3.53;1.00;;;;;;;13.95;54.35;100593.59;4988129;28;20112;-70
2023/08/06 06:02:39;;;;;;;1.40;0.55;;;;;;;14.04;54.80;100602.72;4988842;28;20532;-69
2023/08/06 06:05:09;;;;;;;1.98;1.13;;;;;;;14.18;54.43;100610.63;4991043;28;20029;-69
2023/08/06 06:07:37;;;;;;;1.85;1.20;;;;;;;14.32;53.48;100608.03;4982417;28;20811;-68
2023/08/06 06:10:05;;;;;;;1.60;1.10;;;;;;;14.24;53.95;100607.66;4990677;28;20107;-69
2023/08/06 06:12:31;;;;;;;1.30;0.68;;;;;;;14.37;53.96;100615.66;4984952;28;20033;-69
2023/08/06 06:15:00;;;;;;;1.92;1.02;;;;;;;14.55;53.24;100608.47;4988303;28;20156;-68
2023/08/06 06:17:26;;;;;;;1.30;0.70;;;;;;;14.66;53.46;100603.38;4986674;28;20041;-69
2023/08/06 06:19:52;;;;;;;3.28;0.90;;;;;;;14.66;53.70;100598.13;4986021;28;20054;-70
2023/08/06 06:22:17;;;;;;;9.88;1.48;;;;;;;14.69;52.95;100594.44;4991017;28;20033;-70
2023/08/06 06:24:43;;;;;;;3.25;0.70;;;;;;;14.83;53.52;100601.47;4985839;28;20218;-70
2023/08/06 06:27:08;;;;;;;2.47;0.90;;;;;;;14.87;53.13;100603.00;4987936;28;20029;-70
2023/08/06 06:29:34;;;;;;;1.80;1.05;;;;;;;14.92;53.34;100600.91;5001857;28;20512;-70
2023/08/06 06:31:59;;;;;;;1.73;0.80;;;;;;;15.02;53.54;100594.13;4990716;28;20679;-69
2023/08/06 06:34:25;;;;;;;1.80;1.02;;;;;;;15.05;52.34;100593.94;4988232;28;20125;-70
2023/08/06 06:36:50;;;;;;;2.65;0.80;;;;;;;14.90;52.50;100587.00;4989452;28;20696;-70
2023/08/06 06:39:16;;;;;;;2.47;0.77;;;;;;;14.97;52.85;100583.91;4969235;28;20544;-70
2023/08/06 06:41:41;;;;;;;1.40;1.02;;;;;;;14.81;52.55;100592.84;4990307;28;20042;-70
2023/08/06 06:44:16;;;;;;;2.03;1.20;;;;;;;14.99;52.51;100586.41;5002035;28;20040;-70
2023/08/06 06:46:44;;;;;;;1.40;0.85;;;;;;;15.16;52.54;100594.09;4991769;28;20148;-71
2023/08/06 06:49:10;;;;;;;2.65;1.25;;;;;;;15.26;51.16;100593.53;5004873;28;20088;-70
2023/08/06 06:51:35;;;;;;;1.45;1.00;;;;;;;15.24;51.97;100590.16;4990413;28;20447;-70
2023/08/06 06:54:01;;;;;;;1.35;0.90;;;;;;;15.35;52.81;100599.06;4991759;28;20033;-70
2023/08/06 06:56:29;;;;;;;3.53;0.90;;;;;;;15.36;51.96;100594.63;5004757;28;20038;-71
2023/08/06 06:58:57;;;;;;;2.10;0.95;;;;;;;15.46;52.66;100589.59;4990957;28;20081;-70
2023/08/06 07:01:22;;;;;;;4.05;1.00;;;;;;;15.67;51.70;100587.38;4990495;28;20033;-70
2023/08/06 07:03:48;;;;;;;1.10;0.57;;;;;;;15.73;50.85;100593.06;4985886;28;20069;-70
2023/08/06 07:06:18;;;;;;;1.48;0.68;;;;;;;15.74;50.43;100588.66;4994928;28;20068;-70
2023/08/06 07:08:46;;;;;;;1.80;0.88;;;;;;;16.15;49.71;100593.81;4986880;28;20046;-68
2023/08/06 07:11:14;;;;;;;3.47;0.52;;;;;;;16.15;50.53;100593.81;4988415;28;20083;-70
2023/08/06 07:13:42;;;;;;;1.83;1.13;;;;;;;16.08;50.68;100591.69;4988569;28;20041;-70
2023/08/06 07:16:08;;;;;;;1.75;1.13;;;;;;;16.07;50.19;100590.00;4988745;28;20052;-70
2023/08/06 07:18:34;;;;;;;5.43;0.77;;;;;;;15.97;50.29;100593.25;4945479;28;20042;-70
2023/08/06 07:21:00;;;;;;;1.13;0.63;;;;;;;15.86;49.89;100597.50;4976922;28;20583;-69
2023/08/06 07:23:25;;;;;;;2.55;1.02;;;;;;;16.18;49.63;100598.03;4992079;28;20033;-69
2023/08/06 07:25:51;;;;;;;2.00;0.80;;;;;;;16.49;48.66;100602.03;4988423;28;20400;-70
2023/08/06 07:28:17;;;;;;;1.35;0.40;;;;;;;16.81;47.82;100599.81;4989027;28;20448;-70
2023/08/06 07:30:45;;;;;;;4.05;1.38;;;;;;;16.85;48.32;100597.78;4990720;28;20587;-69
2023/08/06 07:33:11;;;;;;;2.13;1.05;;;;;;;16.87;48.91;100606.44;4992355;28;20038;-69
2023/08/06 07:35:39;;;;;;;3.55;0.95;;;;;;;16.93;47.95;100605.16;5002678;28;20018;-72
2023/08/06 07:38:05;;;;;;;3.80;1.27;;;;;;;17.23;46.71;100600.31;4990020;28;20091;-70
2023/08/06 07:40:31;;;;;;;3.17;0.98;;;;;;;17.24;47.26;100607.28;4992736;28;20037;-71
2023/08/06 07:42:57;;;;;;;2.33;0.98;;;;;;;17.08;46.26;100603.22;4974694;28;20565;-70
2023/08/06 07:45:22;;;;;;;2.78;0.85;;;;;;;17.03;47.29;100606.19;4992544;28;20085;-70
2023/08/06 07:47:48;;;;;;;3.55;1.63;;;;;;;16.92;47.76;100611.41;4983981;28;20061;-70
2023/08/06 07:50:18;;;;;;;3.13;2.20;;;;;;;17.02;46.78;100601.84;4987895;28;20037;-70
2023/08/06 07:52:43;;;;;;;2.38;1.35;;;;;;;17.23;47.68;100612.69;4989859;28;20119;-70
2023/08/06 07:55:11;;;;;;;1.58;0.85;;;;;;;17.29;47.19;100616.66;5006232;28;20466;-70
2023/08/06 07:57:37;;;;;;;3.78;1.30;;;;;;;17.34;46.67;100623.31;4988304;28;20040;-71
2023/08/06 08:00:04;;;;;;;2.75;1.15;;;;;;;17.68;45.94;100620.03;4987010;28;20033;-70
2023/08/06 08:02:38;;;;;;;2.47;1.10;;;;;;;17.97;45.48;100615.19;4987447;28;20112;-70
2023/08/06 08:05:04;;;;;;;2.75;1.02;;;;;;;18.32;45.52;100612.53;4988688;28;20048;-70
2023/08/06 08:07:30;;;;;;;1.73;1.00;;;;;;;18.41;44.04;100611.00;5002082;28;20045;-70
2023/08/06 08:09:56;;;;;;;2.35;1.10;;;;;;;18.21;44.44;100615.19;5005335;28;20026;-70
2023/08/06 08:12:22;;;;;;;3.55;1.00;;;;;;;18.47;43.94;100615.78;4989707;28;20481;-70
2023/08/06 08:14:48;;;;;;;1.98;0.93;;;;;;;18.91;42.81;100611.50;4991072;28;20515;-70
2023/08/06 08:17:16;;;;;;;1.73;0.80;;;;;;;19.29;43.46;100613.69;4976244;28;20038;-70
2023/08/06 08:19:43;;;;;;;2.08;1.05;;;;;;;20.00;42.08;100610.53;5001996;28;20301;-70
2023/08/06 08:22:11;;;;;;;1.13;0.60;;;;;;;20.21;41.85;100610.56;4992202;28;20095;-70
2023/08/06 08:24:37;;;;;;;2.22;0.90;;;;;;;20.21;41.31;100610.56;4988074;28;20699;-70
2023/08/06 08:27:05;;;;;;;1.30;0.85;;;;;;;20.28;41.46;100602.91;4992324;28;20054;-70
2023/08/06 08:29:33;;;;;;;1.97;1.00;;;;;;;20.22;40.59;100606.13;4986362;28;20038;-71
2023/08/06 08:31:58;;;;;;;1.35;0.98;;;;;;;20.22;40.07;100600.81;4990589;28;20137;-70
2023/08/06 08:34:24;;;;;;;2.22;0.60;;;;;;;20.19;39.94;100595.72;4990581;28;20264;-71
2023/08/06 08:36:49;;;;;;;2.03;1.15;;;;;;;20.53;40.01;100594.53;4987808;28;20163;-70
2023/08/06 08:39:17;;;;;;;2.15;1.10;;;;;;;20.67;40.51;100597.78;4984056;28;21261;-71
2023/08/06 08:41:43;;;;;;;1.35;1.02;;;;;;;20.65;39.59;100603.22;4987306;28;20175;-70
2023/08/06 08:44:32;;;;;;;1.98;1.05;;;;;;;20.19;39.44;100601.84;4975143;28;20432;-70
2023/08/06 08:46:57;;;;;;;1.85;0.57;;;;;;;20.37;40.13;100603.94;4985830;28;20387;-70
2023/08/06 08:49:24;;;;;;;3.17;1.10;;;;;;;20.24;39.95;100599.69;4986205;28;20041;-70
2023/08/06 08:51:53;;;;;;;1.17;0.57;;;;;;;20.16;39.58;100603.94;5003138;28;20041;-71
2023/08/06 08:54:22;;;;;;;5.28;0.88;;;;;;;20.73;38.92;100594.63;4987027;28;20497;-70
2023/08/06 08:56:48;;;;;;;3.53;1.15;;;;;;;20.07;38.80;100593.13;4990202;28;20041;-70
2023/08/06 08:59:14;;;;;;;3.03;0.93;;;;;;;21.24;38.29;100598.09;4977912;28;20042;-71
2023/08/06 09:01:42;;;;;;;2.92;0.85;;;;;;;21.64;36.48;100595.34;4987738;28;20500;-70
2023/08/06 09:04:09;;;;;;;1.67;1.33;;;;;;;21.54;36.94;100595.34;4986658;28;20049;-71
2023/08/06 09:06:38;;;;;;;2.97;1.65;;;;;;;21.09;37.25;100592.34;4987859;28;21344;-70
2023/08/06 09:09:16;;;;;;;0.80;0.45;;;;;;;20.73;37.23;100589.28;4989577;28;20050;-70
2023/08/06 09:11:48;;;;;;;2.78;0.70;;;;;;;20.53;37.65;100586.56;4985964;28;20646;-70
2023/08/06 09:14:13;;;;;;;1.27;0.57;;;;;;;20.29;38.20;100586.03;4988786;28;20517;-70
2023/08/06 09:16:39;;;;;;;2.22;0.98;;;;;;;21.06;37.29;100596.09;4986962;28;20025;-71
2023/08/06 09:19:15;;;;;;;1.73;0.60;;;;;;;21.34;36.47;100590.97;4960840;28;20489;-70
2023/08/06 09:21:42;;;;;;;2.45;0.63;;;;;;;22.27;35.33;100591.34;4989603;28;20162;-71
2023/08/06 09:24:15;;;;;;;2.03;0.77;;;;;;;22.39;35.11;100590.19;4988091;28;20042;-70
2023/08/06 09:26:44;;;;;;;1.48;0.60;;;;;;;22.18;35.71;100587.72;4990362;28;20034;-70
2023/08/06 09:29:11;;;;;;;1.63;0.73;;;;;;;22.18;34.56;100588.59;4989553;28;20038;-70
2023/08/06 09:31:53;;;;;;;2.38;0.60;;;;;;;22.71;33.57;100586.28;4985162;28;20083;-70
2023/08/06 09:34:22;;;;;;;2.88;0.43;;;;;;;22.16;33.72;100593.19;4977004;28;20701;-70
2023/08/06 09:36:53;;;;;;;2.65;0.60;;;;;;;22.55;34.04;100589.56;5004683;28;20034;-70
2023/08/06 09:39:21;;;;;;;3.75;0.68;;;;;;;22.00;34.49;100589.41;4983214;28;20092;-71
2023/08/06 09:41:50;;;;;;;1.10;0.82;;;;;;;21.69;35.25;100592.25;4987207;28;20037;-70
2023/08/06 09:44:24;;;;;;;2.22;1.58;;;;;;;21.21;35.32;100593.91;4982319;28;20466;-70
2023/08/06 09:46:55;;;;;;;2.33;1.20;;;;;;;21.56;35.32;100592.56;5004184;28;20096;-70
2023/08/06 09:49:28;;;;;;;1.33;0.63;;;;;;;21.69;34.92;100587.78;4975999;28;20050;-70
2023/08/06 09:51:59;;;;;;;1.63;0.60;;;;;;;21.58;35.45;100590.59;4986966;28;20061;-69
2023/08/06 09:54:26;;;;;;;1.05;0.30;;;;;;;21.27;35.87;100595.19;4966260;28;20045;-71
2023/08/06 09:56:56;;;;;;;1.17;0.50;;;;;;;20.82;35.63;100599.09;4989333;28;20060;-71
2023/08/06 09:59:23;;;;;;;3.78;0.50;;;;;;;20.77;36.58;100592.50;4984903;28;20129;-71
2023/08/06 10:01:51;;;;;;;1.77;0.38;;;;;;;20.71;37.47;100599.22;4985250;28;20033;-70
2023/08/06 10:04:20;;;;;;;3.13;0.60;;;;;;;20.66;35.95;100598.75;4966691;28;20050;-70
2023/08/06 10:06:48;;;;;;;1.27;0.70;;;;;;;20.58;36.51;100598.59;4986419;28;20113;-70
2023/08/06 10:09:14;;;;;;;2.40;0.55;;;;;;;20.15;36.73;100599.59;4985157;28;20136;-70
2023/08/06 10:11:42;;;;;;;1.58;0.60;;;;;;;19.67;37.02;100608.91;4986004;28;20564;-70
2023/08/06 10:14:14;;;;;;;1.33;0.55;;;;;;;20.01;37.59;100604.25;4985368;28;20046;-71
2023/08/06 10:16:45;;;;;;;1.58;0.93;;;;;;;19.78;38.59;100598.25;4990496;28;20120;-70
2023/08/06 10:19:12;;;;;;;1.00;0.70;;;;;;;20.04;37.39;100598.72;4988776;28;20038;-70
2023/08/06 10:21:38;;;;;;;2.58;0.60;;;;;;;20.10;38.30;100595.53;4988065;28;20044;-70
2023/08/06 10:24:09;;;;;;;2.03;0.75;;;;;;;20.04;38.05;100604.00;4991546;28;20629;-70
2023/08/06 10:26:35;;;;;;;2.67;0.88;;;;;;;20.15;38.07;100602.25;4989660;28;20053;-70
2023/08/06 10:29:00;;;;;;;1.25;0.50;;;;;;;20.02;37.83;100595.34;4971329;28;20045;-70
2023/08/06 10:31:57;;;;;;;1.38;0.60;;;;;;;20.36;38.75;100597.78;4986879;28;20045;-70
2023/08/06 10:34:47;;;;;;;1.60;0.57;;;;;;;20.01;38.58;100596.28;4991314;28;20097;-71
2023/08/06 10:37:15;;;;;;;2.35;0.88;;;;;;;20.45;38.30;100594.34;4991289;28;20290;-70
2023/08/06 10:39:50;;;;;;;1.45;1.02;;;;;;;20.49;37.58;100593.09;4988921;28;20041;-70
2023/08/06 10:42:20;;;;;;;1.20;0.90;;;;;;;20.36;38.63;100587.19;4986094;28;20479;-70
2023/08/06 10:45:17;;;;;;;3.28;1.00;;;;;;;20.16;38.30;100591.50;5001122;28;20033;-69
2023/08/06 10:47:44;;;;;;;2.72;0.82;;;;;;;20.09;38.46;100590.34;4991255;28;20681;-69
2023/08/06 10:50:16;;;;;;;3.40;0.70;;;;;;;20.48;38.56;100596.72;4989854;28;20030;-69
2023/08/06 10:52:46;;;;;;;2.33;0.57;;;;;;;20.25;38.62;100595.22;4957877;28;20033;-69
2023/08/06 10:55:22;;;;;;;3.92;0.85;;;;;;;19.91;38.89;100595.41;4987813;28;20223;-70
2023/08/06 10:57:47;;;;;;;3.10;1.15;;;;;;;19.41;39.59;100595.09;4987951;28;20056;-70
2023/08/06 11:00:13;;;;;;;1.33;0.85;;;;;;;19.21;40.23;100599.38;4988089;28;20042;-70
2023/08/06 11:02:39;;;;;;;2.15;0.88;;;;;;;19.59;39.59;100598.94;4989532;28;20677;-69
2023/08/06 11:05:08;;;;;;;2.92;1.15;;;;;;;19.90;39.20;100597.22;4991290;28;20034;-70
2023/08/06 11:07:39;;;;;;;1.52;1.25;;;;;;;19.85;38.90;100595.91;4983684;28;20064;-69
2023/08/06 11:10:12;;;;;;;3.22;1.00;;;;;;;20.17;38.28;100587.03;4989285;28;20487;-69
2023/08/06 11:12:40;;;;;;;2.70;1.17;;;;;;;20.12;38.37;100590.09;4999104;28;20472;-69
2023/08/06 11:15:06;;;;;;;2.10;1.23;;;;;;;20.18;37.68;100586.91;4992399;28;20033;-69
2023/08/06 11:17:41;;;;;;;2.05;0.93;;;;;;;20.37;38.74;100588.84;4987032;28;20124;-69
2023/08/06 11:20:07;;;;;;;1.42;0.82;;;;;;;19.94;38.51;100581.88;4993099;28;20042;-69
2023/08/06 11:22:36;;;;;;;1.35;1.05;;;;;;;19.66;39.58;100578.91;4975493;28;20034;-70
2023/08/06 11:25:01;;;;;;;2.90;1.15;;;;;;;20.10;39.64;100582.28;4993074;28;20040;-69
2023/08/06 11:27:30;;;;;;;1.90;1.02;;;;;;;20.25;39.24;100580.13;4984693;28;20484;-69